createdAt,value
2023-05-12T00:00:36.757Z,94404.00
2023-05-12T00:01:36.786Z,94400.00
2023-05-12T00:02:36.883Z,94402.00
2023-05-12T00:03:37.086Z,94398.00
2023-05-12T00:04:36.942Z,94400.00
2023-05-12T00:05:36.952Z,94396.00
2023-05-12T00:06:36.979Z,94396.00
2023-05-12T00:07:37.004Z,94396.00
2023-05-12T00:08:37.065Z,94396.00
2023-05-12T00:09:37.117Z,94396.00
2023-05-12T00:10:37.179Z,94398.00
2023-05-12T00:11:37.260Z,94398.00
2023-05-12T00:12:37.297Z,94398.00
2023-05-12T00:13:37.351Z,94398.00
2023-05-12T00:14:37.376Z,94396.00
2023-05-12T00:15:37.430Z,94394.00
2023-05-12T00:16:37.610Z,94394.00
2023-05-12T00:17:37.653Z,94394.00
2023-05-12T00:18:37.719Z,94392.00
2023-05-12T00:19:37.622Z,94394.00
2023-05-12T00:20:37.666Z,94394.00
2023-05-12T00:21:37.701Z,94392.00
2023-05-12T00:22:37.768Z,94396.00
2023-05-12T00:23:37.819Z,94394.00
2023-05-12T00:24:37.849Z,94394.00
2023-05-12T00:25:37.926Z,94394.00
2023-05-12T00:26:37.945Z,94398.00
2023-05-12T00:27:38.009Z,94398.00
2023-05-12T00:28:38.027Z,94398.00
2023-05-12T00:29:38.109Z,94400.00
2023-05-12T00:30:38.141Z,94398.00
2023-05-12T00:31:38.223Z,94398.00
2023-05-12T00:32:38.299Z,94402.00
2023-05-12T00:33:38.330Z,94402.00
2023-05-12T00:34:38.385Z,94404.00
2023-05-12T00:35:38.464Z,94402.00
2023-05-12T00:36:38.498Z,94402.00
2023-05-12T00:37:38.591Z,94398.00
2023-05-12T00:38:38.625Z,94398.00
2023-05-12T00:39:38.694Z,94398.00
2023-05-12T00:40:38.768Z,94400.00
2023-05-12T00:41:38.793Z,94396.00
2023-05-12T00:42:38.839Z,94396.00
2023-05-12T00:43:38.890Z,94398.00
2023-05-12T00:44:38.942Z,94398.00
2023-05-12T00:45:39.039Z,94398.00
2023-05-12T00:46:39.052Z,94400.00
2023-05-12T00:47:39.142Z,94400.00
2023-05-12T00:48:39.175Z,94400.00
2023-05-12T00:49:39.243Z,94394.00
2023-05-12T00:50:39.314Z,94402.00
2023-05-12T00:51:39.368Z,94402.00
2023-05-12T00:52:39.437Z,94398.00
2023-05-12T00:53:49.304Z,94385.00
2023-05-12T00:54:40.497Z,94385.00
2023-05-12T00:55:39.525Z,94385.00
2023-05-12T00:56:39.589Z,94385.00
2023-05-12T00:57:39.498Z,94385.00
2023-05-12T00:58:39.460Z,94385.00
2023-05-12T00:59:39.495Z,94381.00
2023-05-12T01:00:39.466Z,94381.00
2023-05-12T01:01:39.544Z,94381.00
2023-05-12T01:02:39.594Z,94379.00
2023-05-12T01:03:39.546Z,94379.00
2023-05-12T01:04:39.555Z,94379.00
2023-05-12T01:05:39.657Z,94377.00
2023-05-12T01:06:39.626Z,94377.00
2023-05-12T01:07:39.680Z,94377.00
2023-05-12T01:08:39.729Z,94379.00
2023-05-12T01:09:39.783Z,94377.00
2023-05-12T01:10:39.857Z,94379.00
2023-05-12T01:11:39.866Z,94379.00
2023-05-12T01:12:39.925Z,94379.00
2023-05-12T01:13:39.975Z,94377.00
2023-05-12T01:14:39.999Z,94377.00
2023-05-12T01:15:40.078Z,94373.00
2023-05-12T01:16:40.144Z,94375.00
2023-05-12T01:17:40.324Z,94375.00
2023-05-12T01:18:40.366Z,94373.00
2023-05-12T01:19:40.313Z,94377.00
2023-05-12T01:20:40.383Z,94373.00
2023-05-12T01:21:40.412Z,94373.00
2023-05-12T01:22:40.465Z,94375.00
2023-05-12T01:23:40.506Z,94375.00
2023-05-12T01:24:40.571Z,94373.00
2023-05-12T01:25:40.646Z,94373.00
2023-05-12T01:26:40.660Z,94373.00
2023-05-12T01:27:40.679Z,94371.00
2023-05-12T01:28:40.701Z,94371.00
2023-05-12T01:29:40.737Z,94369.00
2023-05-12T01:30:40.817Z,94367.00
2023-05-12T01:31:41.083Z,94365.00
2023-05-12T01:32:40.945Z,94363.00
2023-05-12T01:33:40.956Z,94361.00
2023-05-12T01:34:41.020Z,94361.00
2023-05-12T01:35:41.086Z,94361.00
2023-05-12T01:36:41.202Z,94363.00
2023-05-12T01:37:41.163Z,94365.00
2023-05-12T01:38:41.197Z,94361.00
2023-05-12T01:39:41.213Z,94367.00
2023-05-12T01:40:41.269Z,94369.00
2023-05-12T01:41:41.340Z,94371.00
2023-05-12T01:42:41.376Z,94371.00
2023-05-12T01:43:41.406Z,94373.00
2023-05-12T01:44:41.406Z,94375.00
2023-05-12T01:45:41.469Z,94375.00
2023-05-12T01:46:41.601Z,94371.00
2023-05-12T01:47:41.569Z,94369.00
2023-05-12T01:48:41.609Z,94371.00
2023-05-12T01:49:41.640Z,94371.00
2023-05-12T01:50:41.657Z,94371.00
2023-05-12T01:51:41.733Z,94373.00
2023-05-12T01:52:41.765Z,94371.00
2023-05-12T01:53:41.824Z,94371.00
2023-05-12T01:54:41.856Z,94371.00
2023-05-12T01:55:41.905Z,94375.00
2023-05-12T01:56:41.930Z,94377.00
2023-05-12T01:57:41.974Z,94377.00
2023-05-12T01:58:42.028Z,94379.00
2023-05-12T01:59:42.028Z,94379.00
2023-05-12T02:00:42.084Z,94381.00
2023-05-12T02:01:42.178Z,94377.00
2023-05-12T02:02:43.206Z,94383.00
2023-05-12T02:03:42.190Z,94381.00
2023-05-12T02:04:42.151Z,94381.00
2023-05-12T02:05:42.151Z,94381.00
2023-05-12T02:06:42.201Z,94385.00
2023-05-12T02:07:42.224Z,94385.00
2023-05-12T02:08:42.299Z,94385.00
2023-05-12T02:09:42.319Z,94385.00
2023-05-12T02:10:42.351Z,94385.00
2023-05-12T02:11:42.432Z,94392.00
2023-05-12T02:12:42.435Z,94394.00
2023-05-12T02:13:42.460Z,94392.00
2023-05-12T02:14:42.518Z,94392.00
2023-05-12T02:15:42.600Z,94383.00
2023-05-12T02:16:42.794Z,94383.00
2023-05-12T02:17:42.687Z,94385.00
2023-05-12T02:18:42.675Z,94394.00
2023-05-12T02:19:42.620Z,94394.00
2023-05-12T02:20:42.623Z,94394.00
2023-05-12T02:21:42.677Z,94394.00
2023-05-12T02:22:42.628Z,94394.00
2023-05-12T02:23:42.641Z,94394.00
2023-05-12T02:24:42.654Z,94396.00
2023-05-12T02:25:42.638Z,94396.00
2023-05-12T02:26:42.656Z,94394.00
2023-05-12T02:27:42.660Z,94396.00
2023-05-12T02:28:42.668Z,94396.00
2023-05-12T02:29:42.662Z,94394.00
2023-05-12T02:30:42.702Z,94396.00
2023-05-12T02:31:42.738Z,94396.00
2023-05-12T02:32:42.816Z,94396.00
2023-05-12T02:33:42.785Z,94396.00
2023-05-12T02:34:42.786Z,94396.00
2023-05-12T02:35:42.816Z,94396.00
2023-05-12T02:36:42.898Z,94392.00
2023-05-12T02:37:42.868Z,94394.00
2023-05-12T02:38:42.898Z,94385.00
2023-05-12T02:39:42.910Z,94392.00
2023-05-12T02:40:42.914Z,94392.00
2023-05-12T02:41:42.927Z,94383.00
2023-05-12T02:42:42.979Z,94381.00
2023-05-12T02:43:42.995Z,94383.00
2023-05-12T02:44:43.035Z,94383.00
2023-05-12T02:45:43.060Z,94385.00
2023-05-12T02:46:43.059Z,94383.00
2023-05-12T02:47:43.108Z,94385.00
2023-05-12T02:48:43.117Z,94383.00
2023-05-12T02:49:43.185Z,94381.00
2023-05-12T02:50:43.205Z,94385.00
2023-05-12T02:51:43.156Z,94383.00
2023-05-12T02:52:43.182Z,94381.00
2023-05-12T02:53:43.193Z,94381.00
2023-05-12T02:54:43.229Z,94385.00
2023-05-12T02:55:43.259Z,94385.00
2023-05-12T02:56:43.257Z,94381.00
2023-05-12T02:57:43.282Z,94381.00
2023-05-12T02:58:43.289Z,94381.00
2023-05-12T02:59:43.292Z,94381.00
2023-05-12T03:00:43.295Z,94381.00
2023-05-12T03:01:43.388Z,94381.00
2023-05-12T03:02:43.438Z,94381.00
2023-05-12T03:03:43.494Z,94383.00
2023-05-12T03:04:43.340Z,94381.00
2023-05-12T03:05:43.332Z,94381.00
2023-05-12T03:06:43.374Z,94377.00
2023-05-12T03:07:43.351Z,94377.00
2023-05-12T03:08:43.340Z,94379.00
2023-05-12T03:09:43.351Z,94379.00
2023-05-12T03:10:43.353Z,94377.00
2023-05-12T03:11:43.346Z,94377.00
2023-05-12T03:12:43.358Z,94377.00
2023-05-12T03:13:43.322Z,94377.00
2023-05-12T03:14:43.327Z,94375.00
2023-05-12T03:15:43.317Z,94375.00
2023-05-12T03:16:43.369Z,94373.00
2023-05-12T03:17:43.389Z,94373.00
2023-05-12T03:18:43.356Z,94377.00
2023-05-12T03:19:43.335Z,94375.00
2023-05-12T03:20:43.349Z,94375.00
2023-05-12T03:21:43.366Z,94373.00
2023-05-12T03:22:43.344Z,94377.00
2023-05-12T03:23:43.336Z,94373.00
2023-05-12T03:24:43.330Z,94375.00
2023-05-12T03:25:43.297Z,94375.00
2023-05-12T03:26:43.308Z,94375.00
2023-05-12T03:27:43.308Z,94377.00
2023-05-12T03:28:43.347Z,94377.00
2023-05-12T03:29:43.297Z,94377.00
2023-05-12T03:30:43.304Z,94381.00
2023-05-12T03:31:43.388Z,94379.00
2023-05-12T03:32:43.335Z,94381.00
2023-05-12T03:33:43.324Z,94375.00
2023-05-12T03:34:43.309Z,94379.00
2023-05-12T03:35:43.307Z,94377.00
2023-05-12T03:36:43.307Z,94375.00
2023-05-12T03:37:43.314Z,94379.00
2023-05-12T03:38:43.320Z,94377.00
2023-05-12T03:39:43.321Z,94377.00
2023-05-12T03:40:43.305Z,94375.00
2023-05-12T03:41:43.310Z,94377.00
2023-05-12T03:42:43.295Z,94375.00
2023-05-12T03:43:43.289Z,94375.00
2023-05-12T03:44:43.298Z,94375.00
2023-05-12T03:45:43.327Z,94373.00
2023-05-12T03:46:43.334Z,94375.00
2023-05-12T03:47:43.350Z,94373.00
2023-05-12T03:48:43.310Z,94371.00
2023-05-12T03:49:43.292Z,94371.00
2023-05-12T03:50:43.308Z,94373.00
2023-05-12T03:51:43.273Z,94369.00
2023-05-12T03:52:43.259Z,94371.00
2023-05-12T03:53:43.264Z,94371.00
2023-05-12T03:54:43.253Z,94373.00
2023-05-12T03:55:43.287Z,94375.00
2023-05-12T03:56:43.271Z,94377.00
2023-05-12T03:57:43.259Z,94377.00
2023-05-12T03:58:43.243Z,94379.00
2023-05-12T03:59:43.243Z,94379.00
2023-05-12T04:00:44.198Z,94377.00
2023-05-12T04:01:43.288Z,94377.00
2023-05-12T04:02:43.364Z,94377.00
2023-05-12T04:03:43.339Z,94375.00
2023-05-12T04:04:43.249Z,94375.00
2023-05-12T04:05:43.242Z,94375.00
2023-05-12T04:06:43.251Z,94377.00
2023-05-12T04:07:43.244Z,94377.00
2023-05-12T04:08:43.242Z,94375.00
2023-05-12T04:09:43.242Z,94377.00
2023-05-12T04:10:43.224Z,94379.00
2023-05-12T04:11:43.228Z,94381.00
2023-05-12T04:12:43.226Z,94377.00
2023-05-12T04:13:43.212Z,94377.00
2023-05-12T04:14:43.626Z,94375.00
2023-05-12T04:15:43.234Z,94375.00
2023-05-12T04:16:43.255Z,94377.00
2023-05-12T04:17:43.294Z,94377.00
2023-05-12T04:18:43.249Z,94377.00
2023-05-12T04:19:43.213Z,94375.00
2023-05-12T04:20:43.206Z,94377.00
2023-05-12T04:21:43.217Z,94379.00
2023-05-12T04:22:43.201Z,94377.00
2023-05-12T04:23:43.205Z,94379.00
2023-05-12T04:24:43.216Z,94379.00
2023-05-12T04:25:43.223Z,94379.00
2023-05-12T04:26:43.212Z,94381.00
2023-05-12T04:27:43.206Z,94381.00
2023-05-12T04:28:43.213Z,94381.00
2023-05-12T04:29:43.203Z,94385.00
2023-05-12T04:30:43.198Z,94385.00
2023-05-12T04:31:43.238Z,94392.00
2023-05-12T04:32:43.290Z,94383.00
2023-05-12T04:33:43.195Z,94394.00
2023-05-12T04:34:43.255Z,94396.00
2023-05-12T04:35:43.204Z,94396.00
2023-05-12T04:36:43.236Z,94398.00
2023-05-12T04:37:43.204Z,94400.00
2023-05-12T04:38:43.210Z,94400.00
2023-05-12T04:39:43.220Z,94402.00
2023-05-12T04:40:43.209Z,94400.00
2023-05-12T04:41:43.198Z,94402.00
2023-05-12T04:42:43.202Z,94404.00
2023-05-12T04:44:43.206Z,94406.00
2023-05-12T04:45:43.260Z,94406.00
2023-05-12T04:46:43.190Z,94408.00
2023-05-12T04:47:43.202Z,94402.00
2023-05-12T04:48:43.186Z,94400.00
2023-05-12T04:49:43.178Z,94402.00
2023-05-12T04:50:43.162Z,94402.00
2023-05-12T04:51:43.143Z,94406.00
2023-05-12T04:52:43.168Z,94408.00
2023-05-12T04:53:43.130Z,94406.00
2023-05-12T04:54:43.117Z,94408.00
2023-05-12T04:55:43.123Z,94410.00
2023-05-12T04:56:43.128Z,94412.00
2023-05-12T04:57:43.128Z,94410.00
2023-05-12T04:58:43.123Z,94414.00
2023-05-12T04:59:43.095Z,94416.00
2023-05-12T05:00:43.091Z,94416.00
2023-05-12T05:01:43.119Z,94416.00
2023-05-12T05:02:43.201Z,94416.00
2023-05-12T05:03:43.161Z,94416.00
2023-05-12T05:04:43.065Z,94416.00
2023-05-12T05:05:43.052Z,94414.00
2023-05-12T05:06:43.041Z,94414.00
2023-05-12T05:07:43.040Z,94414.00
2023-05-12T05:08:43.016Z,94412.00
2023-05-12T05:09:43.041Z,94418.00
2023-05-12T05:10:43.003Z,94418.00
2023-05-12T05:11:43.017Z,94416.00
2023-05-12T05:12:43.005Z,94416.00
2023-05-12T05:13:43.010Z,94416.00
2023-05-12T05:14:43.006Z,94416.00
2023-05-12T05:15:43.068Z,94422.00
2023-05-12T05:16:42.982Z,94418.00
2023-05-12T05:17:43.015Z,94420.00
2023-05-12T05:18:42.979Z,94420.00
2023-05-12T05:19:55.122Z,94420.00
2023-05-12T05:20:45.616Z,94422.00
2023-05-12T05:21:43.940Z,94422.00
2023-05-12T05:22:42.923Z,94422.00
2023-05-12T05:23:42.974Z,94422.00
2023-05-12T05:24:42.935Z,94422.00
2023-05-12T05:25:42.906Z,94420.00
2023-05-12T05:26:42.895Z,94422.00
2023-05-12T05:27:42.930Z,94420.00
2023-05-12T05:28:42.940Z,94420.00
2023-05-12T05:29:42.976Z,94418.00
2023-05-12T05:30:42.870Z,94418.00
2023-05-12T05:31:42.985Z,94422.00
2023-05-12T05:32:43.136Z,94420.00
2023-05-12T05:33:42.870Z,94420.00
2023-05-12T05:34:42.912Z,94418.00
2023-05-12T05:35:42.861Z,94418.00
2023-05-12T05:36:42.861Z,94418.00
2023-05-12T05:37:42.859Z,94416.00
2023-05-12T05:38:42.819Z,94418.00
2023-05-12T05:39:42.864Z,94416.00
2023-05-12T05:40:52.955Z,94418.00
2023-05-12T05:41:43.822Z,94416.00
2023-05-12T05:42:42.799Z,94416.00
2023-05-12T05:43:42.815Z,94420.00
2023-05-12T05:44:42.809Z,94418.00
2023-05-12T05:45:42.779Z,94418.00
2023-05-12T05:46:42.877Z,94420.00
2023-05-12T05:47:42.850Z,94418.00
2023-05-12T05:48:42.758Z,94418.00
2023-05-12T05:49:42.766Z,94418.00
2023-05-12T05:50:42.738Z,94418.00
2023-05-12T05:51:42.762Z,94416.00
2023-05-12T05:52:42.737Z,94420.00
2023-05-12T05:53:42.735Z,94412.00
2023-05-12T05:54:42.816Z,94414.00
2023-05-12T05:55:42.853Z,94414.00
2023-05-12T05:56:42.913Z,94412.00
2023-05-12T05:57:42.978Z,94414.00
2023-05-12T05:58:43.032Z,94414.00
2023-05-12T05:59:43.123Z,94412.00
2023-05-12T06:00:43.130Z,94412.00
2023-05-12T06:01:43.235Z,94414.00
2023-05-12T06:02:43.379Z,94412.00
2023-05-12T06:03:43.434Z,94410.00
2023-05-12T06:04:43.320Z,94410.00
2023-05-12T06:05:43.419Z,94410.00
2023-05-12T06:06:43.387Z,94410.00
2023-05-12T06:07:43.410Z,94410.00
2023-05-12T06:08:43.441Z,94414.00
2023-05-12T06:09:43.493Z,94410.00
2023-05-12T06:10:43.505Z,94412.00
2023-05-12T06:11:43.547Z,94408.00
2023-05-12T06:12:43.630Z,94414.00
2023-05-12T06:13:43.612Z,94414.00
2023-05-12T06:14:43.698Z,94414.00
2023-05-12T06:15:43.733Z,94414.00
2023-05-12T06:16:43.841Z,94416.00
2023-05-12T06:17:43.908Z,94420.00
2023-05-12T06:18:43.947Z,94418.00
2023-05-12T06:19:43.908Z,94418.00
2023-05-12T06:20:43.952Z,94414.00
2023-05-12T06:21:44.013Z,94418.00
2023-05-12T06:22:44.041Z,94416.00
2023-05-12T06:23:44.075Z,94414.00
2023-05-12T06:24:44.116Z,94416.00
2023-05-12T06:25:44.136Z,94416.00
2023-05-12T06:26:44.211Z,94416.00
2023-05-12T06:27:44.228Z,94418.00
2023-05-12T06:28:44.250Z,94418.00
2023-05-12T06:29:44.282Z,94420.00
2023-05-12T06:30:44.354Z,94420.00
2023-05-12T06:31:44.333Z,94420.00
2023-05-12T06:32:44.398Z,94418.00
2023-05-12T06:33:44.400Z,94414.00
2023-05-12T06:34:44.397Z,94416.00
2023-05-12T06:35:44.457Z,94416.00
2023-05-12T06:36:44.425Z,94416.00
2023-05-12T06:37:44.445Z,94420.00
2023-05-12T06:38:44.465Z,94420.00
2023-05-12T06:39:44.544Z,94420.00
2023-05-12T06:40:44.554Z,94418.00
2023-05-12T06:41:45.122Z,94420.00
2023-05-12T06:42:44.661Z,94418.00
2023-05-12T06:43:44.624Z,94418.00
2023-05-12T06:44:44.629Z,94418.00
2023-05-12T06:45:44.673Z,94422.00
2023-05-12T06:46:44.680Z,94420.00
2023-05-12T06:47:44.709Z,94418.00
2023-05-12T06:48:44.669Z,94418.00
2023-05-12T06:49:44.702Z,94418.00
2023-05-12T06:50:44.732Z,94416.00
2023-05-12T06:51:44.769Z,94416.00
2023-05-12T06:52:45.885Z,94418.00
2023-05-12T06:53:44.898Z,94416.00
2023-05-12T06:54:44.917Z,94414.00
2023-05-12T06:55:45.016Z,94412.00
2023-05-12T06:56:45.131Z,94412.00
2023-05-12T06:57:45.035Z,94410.00
2023-05-12T06:58:45.055Z,94410.00
2023-05-12T06:59:45.186Z,94410.00
2023-05-12T07:00:45.170Z,94410.00
2023-05-12T07:01:45.284Z,94414.00
2023-05-12T07:02:45.348Z,94414.00
2023-05-12T07:03:45.428Z,94412.00
2023-05-12T07:04:45.487Z,94412.00
2023-05-12T07:05:45.483Z,94410.00
2023-05-12T07:06:45.497Z,94410.00
2023-05-12T07:07:45.559Z,94410.00
2023-05-12T07:08:45.613Z,94410.00
2023-05-12T07:09:45.720Z,94410.00
2023-05-12T07:10:45.739Z,94412.00
2023-05-12T07:11:45.812Z,94410.00
2023-05-12T07:12:45.919Z,94408.00
2023-05-12T07:13:45.901Z,94408.00
2023-05-12T07:14:45.932Z,94406.00
2023-05-12T07:15:46.019Z,94404.00
2023-05-12T07:16:46.035Z,94398.00
2023-05-12T07:17:46.146Z,94396.00
2023-05-12T07:18:46.238Z,94398.00
2023-05-12T07:19:46.176Z,94394.00
2023-05-12T07:20:46.258Z,94394.00
2023-05-12T07:21:46.270Z,94392.00
2023-05-12T07:22:46.293Z,94394.00
2023-05-12T07:23:46.314Z,94385.00
2023-05-12T07:24:46.361Z,94385.00
2023-05-12T07:25:46.420Z,94383.00
2023-05-12T11:17:42.292Z,94304.00
2023-05-12T11:18:42.281Z,94304.00
2023-05-12T11:19:42.176Z,94304.00
2023-05-12T11:20:42.132Z,94302.00
2023-05-12T11:21:42.140Z,94308.00
2023-05-12T11:22:42.137Z,94304.00
2023-05-12T11:23:42.097Z,94304.00
2023-05-12T11:24:42.092Z,94300.00
2023-05-12T11:25:44.153Z,94302.00
2023-05-12T11:26:42.105Z,94302.00
2023-05-12T11:27:42.065Z,94302.00
2023-05-12T11:28:42.115Z,94302.00
2023-05-12T11:29:42.084Z,94299.00
2023-05-12T11:30:42.114Z,94304.00
2023-05-12T11:31:42.162Z,94302.00
2023-05-12T11:32:42.168Z,94299.00
2023-05-12T11:33:42.190Z,94297.00
2023-05-12T11:34:42.186Z,94295.00
2023-05-12T11:35:42.166Z,94297.00
2023-05-12T11:36:42.220Z,94295.00
2023-05-12T11:37:42.158Z,94295.00
2023-05-12T11:38:42.151Z,94293.00
2023-05-12T11:39:42.176Z,94293.00
2023-05-12T11:40:42.176Z,94291.00
2023-05-12T11:41:42.211Z,94291.00
2023-05-12T11:42:42.240Z,94293.00
2023-05-12T11:43:42.283Z,94289.00
2023-05-12T11:44:42.316Z,94289.00
2023-05-12T11:45:42.416Z,94291.00
2023-05-12T11:46:42.401Z,94287.00
2023-05-12T11:47:42.432Z,94287.00
2023-05-12T11:48:42.454Z,94285.00
2023-05-12T11:49:42.504Z,94283.00
2023-05-12T11:50:42.543Z,94285.00
2023-05-12T11:51:42.560Z,94285.00
2023-05-12T11:52:42.587Z,94281.00
2023-05-12T11:53:42.643Z,94287.00
2023-05-12T11:54:42.653Z,94287.00
2023-05-12T11:55:42.678Z,94283.00
2023-05-12T11:56:42.709Z,94283.00
2023-05-12T11:57:42.715Z,94283.00
2023-05-12T11:58:42.741Z,94281.00
2023-05-12T11:59:42.762Z,94283.00
2023-05-12T12:00:42.818Z,94283.00
2023-05-12T12:01:42.847Z,94285.00
2023-05-12T12:02:42.910Z,94285.00
2023-05-12T12:03:43.001Z,94285.00
2023-05-12T12:04:43.271Z,94285.00
2023-05-12T12:05:43.025Z,94283.00
2023-05-12T12:06:43.093Z,94285.00
2023-05-12T12:07:43.119Z,94285.00
2023-05-12T12:08:43.155Z,94285.00
2023-05-12T12:09:43.182Z,94285.00
2023-05-12T12:10:43.224Z,94283.00
2023-05-12T12:11:43.288Z,94283.00
2023-05-12T12:12:43.331Z,94283.00
2023-05-12T12:13:43.331Z,94279.00
2023-05-12T12:14:43.774Z,94279.00
2023-05-12T12:15:43.414Z,94277.00
2023-05-12T12:16:43.424Z,94273.00
2023-05-12T12:17:43.468Z,94273.00
2023-05-12T12:18:43.495Z,94275.00
2023-05-12T12:19:43.475Z,94269.00
2023-05-12T12:20:43.479Z,94275.00
2023-05-12T12:21:43.557Z,94273.00
2023-05-12T12:22:43.546Z,94271.00
2023-05-12T12:23:50.825Z,94269.00
2023-05-12T12:24:44.594Z,94269.00
2023-05-12T12:25:43.583Z,94269.00
2023-05-12T12:26:43.567Z,94271.00
2023-05-12T12:27:43.558Z,94267.00
2023-05-12T12:28:43.550Z,94267.00
2023-05-12T12:29:43.534Z,94267.00
2023-05-12T12:30:43.538Z,94267.00
2023-05-12T12:31:43.612Z,94267.00
2023-05-12T12:32:43.547Z,94265.00
2023-05-12T12:33:43.551Z,94265.00
2023-05-12T12:34:43.559Z,94269.00
2023-05-12T12:35:43.584Z,94267.00
2023-05-12T12:36:43.593Z,94265.00
2023-05-12T12:37:43.622Z,94269.00
2023-05-12T12:38:43.665Z,94269.00
2023-05-12T12:39:43.700Z,94269.00
2023-05-12T12:40:43.685Z,94267.00
2023-05-12T12:41:43.714Z,94265.00
2023-05-12T12:42:43.749Z,94265.00
2023-05-12T12:43:43.778Z,94267.00
2023-05-12T12:44:43.850Z,94267.00
2023-05-12T12:45:43.804Z,94269.00
2023-05-12T12:46:43.924Z,94265.00
2023-05-12T12:47:43.877Z,94265.00
2023-05-12T12:48:43.868Z,94265.00
2023-05-12T12:49:43.945Z,94267.00
2023-05-12T12:50:43.957Z,94265.00
2023-05-12T12:51:46.668Z,94265.00
2023-05-12T12:52:43.934Z,94263.00
2023-05-12T12:53:43.959Z,94265.00
2023-05-12T12:54:43.957Z,94267.00
2023-05-12T12:55:43.908Z,94263.00
2023-05-12T12:56:43.907Z,94261.00
2023-05-12T12:57:43.898Z,94259.00
2023-05-12T12:58:43.888Z,94259.00
2023-05-12T12:59:43.917Z,94259.00
2023-05-12T13:00:43.898Z,94261.00
2023-05-12T13:01:43.998Z,94261.00
2023-05-12T13:02:43.957Z,94261.00
2023-05-12T13:03:43.841Z,94261.00
2023-05-12T13:04:43.830Z,94259.00
2023-05-12T13:05:43.832Z,94259.00
2023-05-12T13:06:43.831Z,94259.00
2023-05-12T13:07:43.808Z,94261.00
2023-05-12T13:08:43.837Z,94257.00
2023-05-12T13:09:43.844Z,94259.00
2023-05-12T13:10:43.806Z,94259.00
2023-05-12T13:11:43.782Z,94255.00
2023-05-12T13:12:43.775Z,94259.00
2023-05-12T13:13:43.774Z,94257.00
2023-05-12T13:14:43.796Z,94257.00
2023-05-12T13:15:43.748Z,94253.00
2023-05-12T13:16:43.785Z,94252.00
2023-05-12T13:17:43.779Z,94250.00
2023-05-12T13:18:43.846Z,94250.00
2023-05-12T13:19:43.785Z,94248.00
2023-05-12T13:20:43.714Z,94252.00
2023-05-12T13:21:43.737Z,94250.00
2023-05-12T13:22:43.726Z,94246.00
2023-05-12T13:23:43.708Z,94246.00
2023-05-12T13:24:43.733Z,94248.00
2023-05-12T13:25:43.702Z,94248.00
2023-05-12T13:26:43.681Z,94244.00
2023-05-12T13:27:43.668Z,94246.00
2023-05-12T13:28:43.651Z,94246.00
2023-05-12T13:29:43.697Z,94244.00
2023-05-12T13:30:43.665Z,94244.00
2023-05-12T13:31:43.632Z,94242.00
2023-05-12T13:32:43.644Z,94242.00
2023-05-12T13:33:43.634Z,94242.00
2023-05-12T13:34:43.612Z,94240.00
2023-05-12T13:35:43.608Z,94238.00
2023-05-12T13:36:43.618Z,94238.00
2023-05-12T13:37:43.628Z,94236.00
2023-05-12T13:38:43.593Z,94238.00
2023-05-12T13:39:43.574Z,94236.00
2023-05-12T13:40:43.579Z,94230.00
2023-05-12T13:41:43.620Z,94226.00
2023-05-12T13:42:43.555Z,94230.00
2023-05-12T13:43:43.545Z,94228.00
2023-05-12T13:44:43.548Z,94228.00
2023-05-12T13:45:43.539Z,94232.00
2023-05-12T13:46:43.622Z,94228.00
2023-05-12T13:47:43.541Z,94228.00
2023-05-12T13:48:44.386Z,94226.00
2023-05-12T13:49:43.518Z,94226.00
2023-05-12T13:50:43.531Z,94224.00
2023-05-12T13:51:43.500Z,94226.00
2023-05-12T13:52:43.490Z,94226.00
2023-05-12T13:53:43.488Z,94226.00
2023-05-12T13:54:43.472Z,94224.00
2023-05-12T13:55:43.459Z,94224.00
2023-05-12T13:56:43.455Z,94228.00
2023-05-12T13:57:43.597Z,94226.00
2023-05-12T13:58:43.479Z,94226.00
2023-05-12T13:59:43.453Z,94228.00
2023-05-12T14:00:43.477Z,94226.00
2023-05-12T14:01:43.540Z,94228.00
2023-05-12T14:02:43.554Z,94230.00
2023-05-12T14:03:43.569Z,94228.00
2023-05-12T14:04:43.598Z,94224.00
2023-05-12T14:05:43.646Z,94228.00
2023-05-12T14:06:43.648Z,94228.00
2023-05-12T14:07:43.676Z,94224.00
2023-05-12T14:08:43.730Z,94224.00
2023-05-12T14:09:43.753Z,94228.00
2023-05-12T14:10:43.790Z,94226.00
2023-05-12T14:11:43.819Z,94226.00
2023-05-12T14:12:43.846Z,94228.00
2023-05-12T14:13:43.869Z,94228.00
2023-05-12T14:14:43.910Z,94228.00
2023-05-12T14:15:49.336Z,94230.00
2023-05-12T14:16:44.995Z,94228.00
2023-05-12T14:17:44.028Z,94230.00
2023-05-12T14:18:44.095Z,94226.00
2023-05-12T14:19:43.905Z,94226.00
2023-05-12T14:20:43.896Z,94230.00
2023-05-12T14:21:43.906Z,94230.00
2023-05-12T14:22:43.889Z,94226.00
2023-05-12T14:23:43.885Z,94230.00
2023-05-12T14:24:43.868Z,94228.00
2023-05-12T14:25:43.879Z,94228.00
2023-05-12T14:26:43.867Z,94226.00
2023-05-12T14:27:43.846Z,94228.00
2023-05-12T14:28:43.894Z,94230.00
2023-05-12T14:29:43.881Z,94228.00
2023-05-12T14:30:43.928Z,94228.00
2023-05-12T14:31:43.906Z,94230.00
2023-05-12T14:32:43.910Z,94228.00
2023-05-12T14:33:43.918Z,94226.00
2023-05-12T14:34:43.949Z,94226.00
2023-05-12T14:35:52.832Z,94224.00
2023-05-12T14:36:44.954Z,94228.00
2023-05-12T14:37:43.927Z,94228.00
2023-05-12T14:38:43.925Z,94224.00
2023-05-12T14:39:43.952Z,94222.00
2023-05-12T14:40:43.916Z,94226.00
2023-05-12T14:41:43.901Z,94226.00
2023-05-12T14:42:43.896Z,94226.00
2023-05-12T14:43:43.897Z,94226.00
2023-05-12T14:44:43.879Z,94222.00
2023-05-12T14:45:43.895Z,94222.00
2023-05-12T14:46:43.892Z,94222.00
2023-05-12T14:47:43.945Z,94222.00
2023-05-12T14:48:43.870Z,94218.00
2023-05-12T14:49:45.590Z,94222.00
2023-05-12T14:50:43.853Z,94222.00
2023-05-12T14:51:43.848Z,94218.00
2023-05-12T14:52:43.850Z,94222.00
2023-05-12T14:53:43.833Z,94218.00
2023-05-12T14:54:43.852Z,94222.00
2023-05-12T14:55:43.854Z,94224.00
2023-05-12T14:56:43.868Z,94226.00
2023-05-12T14:57:43.869Z,94226.00
2023-05-12T14:58:43.896Z,94222.00
2023-05-12T14:59:43.935Z,94220.00
2023-05-12T15:00:43.954Z,94222.00
2023-05-12T15:01:44.103Z,94222.00
2023-05-12T15:02:44.054Z,94224.00
2023-05-12T15:03:43.996Z,94222.00
2023-05-12T15:04:43.981Z,94220.00
2023-05-12T15:06:44.029Z,94220.00
2023-05-12T15:07:44.034Z,94220.00
2023-05-12T15:08:43.992Z,94218.00
2023-05-12T15:09:43.980Z,94218.00
2023-05-12T15:10:43.987Z,94222.00
2023-05-12T15:11:43.969Z,94220.00
2023-05-12T15:12:43.962Z,94220.00
2023-05-12T15:13:43.957Z,94224.00
2023-05-12T15:14:44.101Z,94222.00
2023-05-12T15:15:43.956Z,94224.00
2023-05-12T15:16:43.983Z,94226.00
2023-05-12T15:17:43.964Z,94224.00
2023-05-12T15:18:44.023Z,94226.00
2023-05-12T15:19:43.919Z,94224.00
2023-05-12T15:20:43.907Z,94226.00
2023-05-12T15:21:43.907Z,94222.00
2023-05-12T15:22:43.899Z,94224.00
2023-05-12T15:23:43.920Z,94224.00
2023-05-12T15:24:43.882Z,94224.00
2023-05-12T15:25:43.892Z,94224.00
2023-05-12T15:26:43.871Z,94224.00
2023-05-12T15:27:43.868Z,94222.00
2023-05-12T15:28:43.935Z,94224.00
2023-05-12T15:29:43.915Z,94228.00
2023-05-12T15:30:43.896Z,94226.00
2023-05-12T15:31:43.986Z,94228.00
2023-05-12T15:32:43.962Z,94228.00
2023-05-12T15:33:43.908Z,94226.00
2023-05-12T15:34:43.894Z,94226.00
2023-05-12T15:35:43.803Z,94226.00
2023-05-12T15:36:43.855Z,94224.00
2023-05-12T15:37:43.795Z,94226.00